sensor_id;sensor_type;location;lat;lon;timestamp;P1;durP1;ratioP1;P2;durP2;ratioP2
20865;SDS011;10593;48.398;10.698;2023-05-15T00:00:12;2.40;;;1.70;;
20865;SDS011;10593;48.398;10.698;2023-05-15T00:02:38;1.53;;;1.43;;
20865;SDS011;10593;48.398;10.698;2023-05-15T00:05:04;2.23;;;1.30;;
20865;SDS011;10593;48.398;10.698;2023-05-15T00:07:31;2.03;;;1.93;;
20865;SDS011;10593;48.398;10.698;2023-05-15T00:09:58;1.50;;;1.40;;
20865;SDS011;10593;48.398;10.698;2023-05-15T00:12:24;1.40;;;1.33;;
20865;SDS011;10593;48.398;10.698;2023-05-15T00:14:50;1.50;;;1.40;;
20865;SDS011;10593;48.398;10.698;2023-05-15T00:17:16;1.17;;;1.17;;
20865;SDS011;10593;48.398;10.698;2023-05-15T00:19:41;1.67;;;1.57;;
20865;SDS011;10593;48.398;10.698;2023-05-15T00:22:07;3.20;;;1.47;;
20865;SDS011;10593;48.398;10.698;2023-05-15T00:24:33;1.73;;;1.63;;
20865;SDS011;10593;48.398;10.698;2023-05-15T00:26:59;1.60;;;1.50;;
20865;SDS011;10593;48.398;10.698;2023-05-15T00:29:25;1.80;;;1.70;;
20865;SDS011;10593;48.398;10.698;2023-05-15T00:31:51;1.80;;;1.70;;
20865;SDS011;10593;48.398;10.698;2023-05-15T00:34:17;2.47;;;1.83;;
20865;SDS011;10593;48.398;10.698;2023-05-15T00:36:43;2.20;;;1.80;;
20865;SDS011;10593;48.398;10.698;2023-05-15T00:39:09;1.60;;;1.50;;
20865;SDS011;10593;48.398;10.698;2023-05-15T00:41:35;1.67;;;1.53;;
20865;SDS011;10593;48.398;10.698;2023-05-15T00:44:02;1.70;;;1.40;;
20865;SDS011;10593;48.398;10.698;2023-05-15T00:46:29;1.57;;;1.50;;
20865;SDS011;10593;48.398;10.698;2023-05-15T00:48:56;1.50;;;1.40;;
20865;SDS011;10593;48.398;10.698;2023-05-15T00:51:23;1.43;;;1.33;;
20865;SDS011;10593;48.398;10.698;2023-05-15T00:53:50;1.50;;;1.40;;
20865;SDS011;10593;48.398;10.698;2023-05-15T00:56:16;1.73;;;1.63;;
20865;SDS011;10593;48.398;10.698;2023-05-15T00:58:44;1.57;;;1.47;;
20865;SDS011;10593;48.398;10.698;2023-05-15T01:01:14;1.70;;;1.60;;
20865;SDS011;10593;48.398;10.698;2023-05-15T01:03:44;1.60;;;1.50;;
20865;SDS011;10593;48.398;10.698;2023-05-15T01:06:10;1.57;;;1.50;;
20865;SDS011;10593;48.398;10.698;2023-05-15T01:11:12;2.10;;;1.67;;
20865;SDS011;10593;48.398;10.698;2023-05-15T01:13:39;1.40;;;1.40;;
20865;SDS011;10593;48.398;10.698;2023-05-15T01:16:05;1.63;;;1.53;;
20865;SDS011;10593;48.398;10.698;2023-05-15T01:18:32;1.70;;;1.60;;
20865;SDS011;10593;48.398;10.698;2023-05-15T01:26:53;1.47;;;1.40;;
20865;SDS011;10593;48.398;10.698;2023-05-15T01:29:50;1.70;;;1.60;;
20865;SDS011;10593;48.398;10.698;2023-05-15T01:33:10;1.70;;;1.60;;
20865;SDS011;10593;48.398;10.698;2023-05-15T01:35:48;1.70;;;1.60;;
20865;SDS011;10593;48.398;10.698;2023-05-15T01:38:37;1.90;;;1.77;;
20865;SDS011;10593;48.398;10.698;2023-05-15T01:41:41;1.60;;;1.50;;
20865;SDS011;10593;48.398;10.698;2023-05-15T01:44:26;1.70;;;1.60;;
20865;SDS011;10593;48.398;10.698;2023-05-15T01:46:56;1.63;;;1.53;;
20865;SDS011;10593;48.398;10.698;2023-05-15T01:49:26;1.77;;;1.57;;
20865;SDS011;10593;48.398;10.698;2023-05-15T01:51:58;1.70;;;1.60;;
20865;SDS011;10593;48.398;10.698;2023-05-15T01:54:33;2.47;;;1.80;;
20865;SDS011;10593;48.398;10.698;2023-05-15T01:57:01;1.60;;;1.50;;
20865;SDS011;10593;48.398;10.698;2023-05-15T01:59:28;1.67;;;1.57;;
20865;SDS011;10593;48.398;10.698;2023-05-15T02:01:55;2.03;;;1.93;;
20865;SDS011;10593;48.398;10.698;2023-05-15T02:04:22;1.77;;;1.67;;
20865;SDS011;10593;48.398;10.698;2023-05-15T02:06:50;1.97;;;1.67;;
20865;SDS011;10593;48.398;10.698;2023-05-15T02:09:18;1.97;;;1.80;;
20865;SDS011;10593;48.398;10.698;2023-05-15T02:11:45;2.30;;;1.97;;
20865;SDS011;10593;48.398;10.698;2023-05-15T02:14:12;2.03;;;1.93;;
20865;SDS011;10593;48.398;10.698;2023-05-15T02:16:41;2.20;;;2.10;;
20865;SDS011;10593;48.398;10.698;2023-05-15T02:19:07;2.10;;;2.00;;
20865;SDS011;10593;48.398;10.698;2023-05-15T02:21:33;2.30;;;2.17;;
20865;SDS011;10593;48.398;10.698;2023-05-15T02:23:59;1.73;;;1.63;;
20865;SDS011;10593;48.398;10.698;2023-05-15T02:38:02;2.13;;;1.70;;
20865;SDS011;10593;48.398;10.698;2023-05-15T02:40:37;1.77;;;1.57;;
20865;SDS011;10593;48.398;10.698;2023-05-15T02:43:04;1.73;;;1.63;;
20865;SDS011;10593;48.398;10.698;2023-05-15T02:45:32;1.83;;;1.73;;
20865;SDS011;10593;48.398;10.698;2023-05-15T02:47:59;1.73;;;1.63;;
20865;SDS011;10593;48.398;10.698;2023-05-15T02:50:26;2.03;;;1.93;;
20865;SDS011;10593;48.398;10.698;2023-05-15T02:53:05;2.20;;;2.00;;
20865;SDS011;10593;48.398;10.698;2023-05-15T02:55:33;2.00;;;1.90;;
20865;SDS011;10593;48.398;10.698;2023-05-15T02:57:59;2.40;;;2.20;;
20865;SDS011;10593;48.398;10.698;2023-05-15T03:00:27;2.13;;;2.03;;
20865;SDS011;10593;48.398;10.698;2023-05-15T03:02:53;2.57;;;2.00;;
20865;SDS011;10593;48.398;10.698;2023-05-15T03:05:19;3.60;;;2.23;;
20865;SDS011;10593;48.398;10.698;2023-05-15T03:07:45;2.97;;;2.13;;
20865;SDS011;10593;48.398;10.698;2023-05-15T03:10:10;2.30;;;2.10;;
20865;SDS011;10593;48.398;10.698;2023-05-15T03:12:37;2.27;;;2.17;;
20865;SDS011;10593;48.398;10.698;2023-05-15T03:15:03;2.33;;;2.23;;
20865;SDS011;10593;48.398;10.698;2023-05-15T03:17:30;2.20;;;2.10;;
20865;SDS011;10593;48.398;10.698;2023-05-15T03:19:56;2.40;;;2.30;;
20865;SDS011;10593;48.398;10.698;2023-05-15T03:22:22;2.47;;;2.30;;
20865;SDS011;10593;48.398;10.698;2023-05-15T03:24:47;2.40;;;2.30;;
20865;SDS011;10593;48.398;10.698;2023-05-15T03:27:13;2.87;;;2.57;;
20865;SDS011;10593;48.398;10.698;2023-05-15T03:29:39;3.03;;;2.73;;
20865;SDS011;10593;48.398;10.698;2023-05-15T03:32:06;3.40;;;3.00;;
20865;SDS011;10593;48.398;10.698;2023-05-15T03:34:32;1.97;;;1.87;;
20865;SDS011;10593;48.398;10.698;2023-05-15T03:36:57;3.47;;;2.13;;
20865;SDS011;10593;48.398;10.698;2023-05-15T03:39:23;2.53;;;2.00;;
20865;SDS011;10593;48.398;10.698;2023-05-15T03:41:49;2.03;;;1.93;;
20865;SDS011;10593;48.398;10.698;2023-05-15T03:44:15;2.40;;;2.30;;
20865;SDS011;10593;48.398;10.698;2023-05-15T03:46:41;2.33;;;2.00;;
20865;SDS011;10593;48.398;10.698;2023-05-15T03:49:06;2.00;;;1.90;;
20865;SDS011;10593;48.398;10.698;2023-05-15T03:51:32;2.17;;;1.97;;
20865;SDS011;10593;48.398;10.698;2023-05-15T03:53:59;2.17;;;2.07;;
20865;SDS011;10593;48.398;10.698;2023-05-15T03:56:24;2.73;;;2.40;;
20865;SDS011;10593;48.398;10.698;2023-05-15T03:58:50;3.03;;;2.83;;
20865;SDS011;10593;48.398;10.698;2023-05-15T04:01:17;2.93;;;2.73;;
20865;SDS011;10593;48.398;10.698;2023-05-15T04:03:42;2.47;;;2.37;;
20865;SDS011;10593;48.398;10.698;2023-05-15T04:06:08;2.63;;;2.53;;
20865;SDS011;10593;48.398;10.698;2023-05-15T04:08:34;2.70;;;2.50;;
20865;SDS011;10593;48.398;10.698;2023-05-15T04:10:59;2.90;;;2.60;;
20865;SDS011;10593;48.398;10.698;2023-05-15T04:13:25;3.07;;;2.67;;
20865;SDS011;10593;48.398;10.698;2023-05-15T04:15:51;2.80;;;2.60;;
20865;SDS011;10593;48.398;10.698;2023-05-15T04:18:17;2.97;;;2.77;;
20865;SDS011;10593;48.398;10.698;2023-05-15T04:20:43;2.97;;;2.73;;
20865;SDS011;10593;48.398;10.698;2023-05-15T04:23:09;3.27;;;3.07;;
20865;SDS011;10593;48.398;10.698;2023-05-15T04:25:34;3.37;;;3.03;;
20865;SDS011;10593;48.398;10.698;2023-05-15T04:28:01;3.10;;;2.90;;
20865;SDS011;10593;48.398;10.698;2023-05-15T04:30:27;3.20;;;2.90;;
20865;SDS011;10593;48.398;10.698;2023-05-15T04:32:53;3.40;;;3.10;;
20865;SDS011;10593;48.398;10.698;2023-05-15T04:35:18;3.10;;;2.90;;
20865;SDS011;10593;48.398;10.698;2023-05-15T04:37:44;2.83;;;2.63;;
20865;SDS011;10593;48.398;10.698;2023-05-15T04:40:09;3.00;;;2.53;;
20865;SDS011;10593;48.398;10.698;2023-05-15T04:42:38;2.77;;;2.50;;
20865;SDS011;10593;48.398;10.698;2023-05-15T04:45:04;2.43;;;2.33;;
20865;SDS011;10593;48.398;10.698;2023-05-15T04:47:31;3.90;;;3.10;;
20865;SDS011;10593;48.398;10.698;2023-05-15T04:49:57;3.07;;;2.87;;
20865;SDS011;10593;48.398;10.698;2023-05-15T04:52:22;3.07;;;2.87;;
20865;SDS011;10593;48.398;10.698;2023-05-15T04:54:48;3.13;;;2.93;;
20865;SDS011;10593;48.398;10.698;2023-05-15T04:57:15;3.60;;;3.30;;
20865;SDS011;10593;48.398;10.698;2023-05-15T04:59:41;8.20;;;3.70;;
20865;SDS011;10593;48.398;10.698;2023-05-15T05:02:08;3.50;;;3.27;;
20865;SDS011;10593;48.398;10.698;2023-05-15T05:04:34;4.00;;;3.67;;
20865;SDS011;10593;48.398;10.698;2023-05-15T05:07:00;4.03;;;3.73;;
20865;SDS011;10593;48.398;10.698;2023-05-15T05:09:28;4.57;;;4.27;;
20865;SDS011;10593;48.398;10.698;2023-05-15T05:11:53;4.90;;;4.50;;
20865;SDS011;10593;48.398;10.698;2023-05-15T05:14:19;4.00;;;3.70;;
20865;SDS011;10593;48.398;10.698;2023-05-15T05:16:45;4.17;;;3.87;;
20865;SDS011;10593;48.398;10.698;2023-05-15T05:19:11;4.27;;;3.97;;
20865;SDS011;10593;48.398;10.698;2023-05-15T05:21:36;5.00;;;4.50;;
20865;SDS011;10593;48.398;10.698;2023-05-15T05:24:02;4.67;;;4.37;;
20865;SDS011;10593;48.398;10.698;2023-05-15T05:26:28;5.10;;;4.70;;
20865;SDS011;10593;48.398;10.698;2023-05-15T05:28:54;4.77;;;4.40;;
20865;SDS011;10593;48.398;10.698;2023-05-15T05:31:19;4.83;;;4.43;;
20865;SDS011;10593;48.398;10.698;2023-05-15T05:33:45;5.13;;;4.73;;
20865;SDS011;10593;48.398;10.698;2023-05-15T05:36:13;5.73;;;4.70;;
20865;SDS011;10593;48.398;10.698;2023-05-15T05:38:40;5.47;;;5.07;;
20865;SDS011;10593;48.398;10.698;2023-05-15T05:41:06;4.97;;;4.57;;
20865;SDS011;10593;48.398;10.698;2023-05-15T05:43:32;4.23;;;3.93;;
20865;SDS011;10593;48.398;10.698;2023-05-15T05:45:57;4.97;;;4.60;;
20865;SDS011;10593;48.398;10.698;2023-05-15T05:48:23;5.83;;;4.77;;
20865;SDS011;10593;48.398;10.698;2023-05-15T05:50:50;5.97;;;4.90;;
20865;SDS011;10593;48.398;10.698;2023-05-15T05:53:16;5.37;;;4.97;;
20865;SDS011;10593;48.398;10.698;2023-05-15T05:55:42;4.97;;;4.57;;
20865;SDS011;10593;48.398;10.698;2023-05-15T05:58:07;5.30;;;4.90;;
20865;SDS011;10593;48.398;10.698;2023-05-15T06:00:33;5.47;;;5.07;;
20865;SDS011;10593;48.398;10.698;2023-05-15T06:02:59;5.03;;;4.73;;
20865;SDS011;10593;48.398;10.698;2023-05-15T06:05:25;5.17;;;4.77;;
20865;SDS011;10593;48.398;10.698;2023-05-15T06:07:51;5.00;;;4.60;;
20865;SDS011;10593;48.398;10.698;2023-05-15T06:10:18;4.70;;;4.40;;
20865;SDS011;10593;48.398;10.698;2023-05-15T06:12:45;5.17;;;4.77;;
20865;SDS011;10593;48.398;10.698;2023-05-15T06:15:11;5.00;;;4.60;;
20865;SDS011;10593;48.398;10.698;2023-05-15T06:17:37;5.37;;;4.97;;
20865;SDS011;10593;48.398;10.698;2023-05-15T06:20:03;4.93;;;4.60;;
20865;SDS011;10593;48.398;10.698;2023-05-15T06:22:34;4.93;;;4.60;;
20865;SDS011;10593;48.398;10.698;2023-05-15T06:25:00;5.00;;;4.60;;
20865;SDS011;10593;48.398;10.698;2023-05-15T06:27:28;5.13;;;4.73;;
20865;SDS011;10593;48.398;10.698;2023-05-15T06:29:54;5.10;;;4.60;;
20865;SDS011;10593;48.398;10.698;2023-05-15T06:32:20;4.57;;;4.17;;
20865;SDS011;10593;48.398;10.698;2023-05-15T06:34:46;4.30;;;4.00;;
20865;SDS011;10593;48.398;10.698;2023-05-15T06:37:11;4.37;;;4.07;;
20865;SDS011;10593;48.398;10.698;2023-05-15T06:39:37;4.70;;;4.30;;
20865;SDS011;10593;48.398;10.698;2023-05-15T06:42:03;4.60;;;4.30;;
20865;SDS011;10593;48.398;10.698;2023-05-15T06:44:29;4.70;;;4.40;;
20865;SDS011;10593;48.398;10.698;2023-05-15T06:46:55;4.90;;;4.60;;
20865;SDS011;10593;48.398;10.698;2023-05-15T06:49:22;4.60;;;4.20;;
20865;SDS011;10593;48.398;10.698;2023-05-15T06:51:49;5.20;;;4.80;;
20865;SDS011;10593;48.398;10.698;2023-05-15T06:54:15;5.17;;;4.67;;
20865;SDS011;10593;48.398;10.698;2023-05-15T06:56:41;5.20;;;4.80;;
20865;SDS011;10593;48.398;10.698;2023-05-15T06:59:06;4.83;;;4.43;;
20865;SDS011;10593;48.398;10.698;2023-05-15T07:01:32;5.00;;;4.60;;
20865;SDS011;10593;48.398;10.698;2023-05-15T07:03:58;5.60;;;5.10;;
20865;SDS011;10593;48.398;10.698;2023-05-15T07:06:23;4.47;;;4.17;;
20865;SDS011;10593;48.398;10.698;2023-05-15T07:08:50;5.40;;;4.70;;
20865;SDS011;10593;48.398;10.698;2023-05-15T07:11:16;5.00;;;4.60;;
20865;SDS011;10593;48.398;10.698;2023-05-15T07:13:42;5.00;;;4.60;;
20865;SDS011;10593;48.398;10.698;2023-05-15T07:16:07;5.03;;;4.63;;
20865;SDS011;10593;48.398;10.698;2023-05-15T07:18:33;5.10;;;4.70;;
20865;SDS011;10593;48.398;10.698;2023-05-15T07:20:59;4.43;;;4.13;;
20865;SDS011;10593;48.398;10.698;2023-05-15T07:23:25;4.33;;;4.03;;
20865;SDS011;10593;48.398;10.698;2023-05-15T07:25:54;4.90;;;4.50;;
20865;SDS011;10593;48.398;10.698;2023-05-15T07:28:20;4.87;;;4.53;;
20865;SDS011;10593;48.398;10.698;2023-05-15T07:30:46;4.37;;;4.07;;
20865;SDS011;10593;48.398;10.698;2023-05-15T07:33:11;6.03;;;4.27;;
20865;SDS011;10593;48.398;10.698;2023-05-15T07:35:37;4.73;;;4.30;;
20865;SDS011;10593;48.398;10.698;2023-05-15T07:38:03;4.20;;;3.90;;
20865;SDS011;10593;48.398;10.698;2023-05-15T07:40:29;4.67;;;4.30;;
20865;SDS011;10593;48.398;10.698;2023-05-15T07:42:55;4.20;;;3.90;;
20865;SDS011;10593;48.398;10.698;2023-05-15T07:45:21;4.77;;;4.43;;
20865;SDS011;10593;48.398;10.698;2023-05-15T07:47:47;4.57;;;4.27;;
20865;SDS011;10593;48.398;10.698;2023-05-15T07:50:14;4.23;;;3.93;;
20865;SDS011;10593;48.398;10.698;2023-05-15T07:52:40;5.20;;;4.80;;
20865;SDS011;10593;48.398;10.698;2023-05-15T07:55:07;4.33;;;4.03;;
20865;SDS011;10593;48.398;10.698;2023-05-15T07:57:34;4.80;;;4.40;;
20865;SDS011;10593;48.398;10.698;2023-05-15T08:00:00;4.33;;;3.97;;
20865;SDS011;10593;48.398;10.698;2023-05-15T08:02:31;3.97;;;3.67;;
20865;SDS011;10593;48.398;10.698;2023-05-15T08:04:56;4.50;;;4.20;;
20865;SDS011;10593;48.398;10.698;2023-05-15T08:07:22;4.27;;;3.97;;
20865;SDS011;10593;48.398;10.698;2023-05-15T08:09:48;3.63;;;3.33;;
20865;SDS011;10593;48.398;10.698;2023-05-15T08:12:14;4.17;;;3.87;;
20865;SDS011;10593;48.398;10.698;2023-05-15T08:14:50;3.90;;;3.63;;
20865;SDS011;10593;48.398;10.698;2023-05-15T08:17:18;3.90;;;3.60;;
20865;SDS011;10593;48.398;10.698;2023-05-15T08:19:44;3.70;;;3.40;;
20865;SDS011;10593;48.398;10.698;2023-05-15T08:22:11;3.90;;;3.60;;
20865;SDS011;10593;48.398;10.698;2023-05-15T08:24:38;3.37;;;3.17;;
20865;SDS011;10593;48.398;10.698;2023-05-15T08:27:04;3.20;;;3.00;;
20865;SDS011;10593;48.398;10.698;2023-05-15T08:29:31;3.50;;;3.30;;
20865;SDS011;10593;48.398;10.698;2023-05-15T08:31:57;3.43;;;3.23;;
20865;SDS011;10593;48.398;10.698;2023-05-15T08:34:23;3.50;;;3.30;;
20865;SDS011;10593;48.398;10.698;2023-05-15T08:36:49;3.53;;;3.27;;
20865;SDS011;10593;48.398;10.698;2023-05-15T08:39:16;3.67;;;3.37;;
20865;SDS011;10593;48.398;10.698;2023-05-15T08:44:57;4.37;;;3.03;;
20865;SDS011;10593;48.398;10.698;2023-05-15T08:47:26;4.37;;;3.60;;
20865;SDS011;10593;48.398;10.698;2023-05-15T08:50:10;3.30;;;3.10;;
20865;SDS011;10593;48.398;10.698;2023-05-15T08:52:39;3.13;;;2.93;;
20865;SDS011;10593;48.398;10.698;2023-05-15T08:55:07;3.10;;;2.90;;
20865;SDS011;10593;48.398;10.698;2023-05-15T08:57:35;3.17;;;2.97;;
20865;SDS011;10593;48.398;10.698;2023-05-15T09:00:02;3.13;;;2.93;;
20865;SDS011;10593;48.398;10.698;2023-05-15T09:02:32;3.17;;;2.87;;
20865;SDS011;10593;48.398;10.698;2023-05-15T09:05:06;3.10;;;2.90;;
20865;SDS011;10593;48.398;10.698;2023-05-15T09:07:33;3.40;;;3.20;;
20865;SDS011;10593;48.398;10.698;2023-05-15T09:10:00;3.30;;;3.10;;
20865;SDS011;10593;48.398;10.698;2023-05-15T09:12:27;3.40;;;3.10;;
20865;SDS011;10593;48.398;10.698;2023-05-15T09:15:11;3.43;;;3.23;;
20865;SDS011;10593;48.398;10.698;2023-05-15T09:17:41;3.90;;;2.83;;
20865;SDS011;10593;48.398;10.698;2023-05-15T09:20:28;3.03;;;2.83;;
20865;SDS011;10593;48.398;10.698;2023-05-15T09:23:01;3.07;;;2.87;;
20865;SDS011;10593;48.398;10.698;2023-05-15T09:25:36;3.23;;;3.00;;
20865;SDS011;10593;48.398;10.698;2023-05-15T09:28:09;3.10;;;2.90;;
20865;SDS011;10593;48.398;10.698;2023-05-15T09:30:48;2.90;;;2.70;;
20865;SDS011;10593;48.398;10.698;2023-05-15T09:33:15;3.57;;;3.27;;
20865;SDS011;10593;48.398;10.698;2023-05-15T09:35:41;3.03;;;2.83;;
20865;SDS011;10593;48.398;10.698;2023-05-15T09:38:08;2.87;;;2.57;;
20865;SDS011;10593;48.398;10.698;2023-05-15T09:40:38;3.40;;;3.20;;
20865;SDS011;10593;48.398;10.698;2023-05-15T09:43:08;2.73;;;2.53;;
20865;SDS011;10593;48.398;10.698;2023-05-15T09:45:37;3.07;;;2.73;;
20865;SDS011;10593;48.398;10.698;2023-05-15T09:48:04;2.90;;;2.70;;
20865;SDS011;10593;48.398;10.698;2023-05-15T09:50:35;2.60;;;2.47;;
20865;SDS011;10593;48.398;10.698;2023-05-15T09:53:02;2.70;;;2.50;;
20865;SDS011;10593;48.398;10.698;2023-05-15T09:55:33;2.47;;;2.30;;
20865;SDS011;10593;48.398;10.698;2023-05-15T09:58:18;2.43;;;2.23;;
20865;SDS011;10593;48.398;10.698;2023-05-15T10:00:45;2.63;;;2.53;;
20865;SDS011;10593;48.398;10.698;2023-05-15T10:03:12;2.37;;;2.27;;
20865;SDS011;10593;48.398;10.698;2023-05-15T10:05:41;1.93;;;1.70;;
20865;SDS011;10593;48.398;10.698;2023-05-15T10:08:07;1.50;;;1.50;;
20865;SDS011;10593;48.398;10.698;2023-05-15T10:10:33;2.40;;;2.30;;
20865;SDS011;10593;48.398;10.698;2023-05-15T10:12:59;2.10;;;2.00;;
20865;SDS011;10593;48.398;10.698;2023-05-15T10:15:28;1.50;;;1.40;;
20865;SDS011;10593;48.398;10.698;2023-05-15T10:17:55;1.40;;;1.40;;
20865;SDS011;10593;48.398;10.698;2023-05-15T10:20:22;1.50;;;1.40;;
20865;SDS011;10593;48.398;10.698;2023-05-15T10:22:53;7.57;;;2.13;;
20865;SDS011;10593;48.398;10.698;2023-05-15T10:28:00;2.40;;;2.30;;
20865;SDS011;10593;48.398;10.698;2023-05-15T10:30:27;2.40;;;2.30;;
20865;SDS011;10593;48.398;10.698;2023-05-15T10:32:53;2.83;;;2.63;;
20865;SDS011;10593;48.398;10.698;2023-05-15T10:35:21;3.07;;;2.87;;
20865;SDS011;10593;48.398;10.698;2023-05-15T10:37:47;2.90;;;2.70;;
20865;SDS011;10593;48.398;10.698;2023-05-15T10:40:14;2.23;;;2.13;;
20865;SDS011;10593;48.398;10.698;2023-05-15T10:42:42;2.57;;;2.37;;
20865;SDS011;10593;48.398;10.698;2023-05-15T10:45:10;2.27;;;2.07;;
20865;SDS011;10593;48.398;10.698;2023-05-15T10:47:37;4.30;;;2.17;;
20865;SDS011;10593;48.398;10.698;2023-05-15T10:50:06;2.53;;;2.33;;
20865;SDS011;10593;48.398;10.698;2023-05-15T10:52:36;2.50;;;2.30;;
20865;SDS011;10593;48.398;10.698;2023-05-15T10:55:06;2.40;;;2.20;;
20865;SDS011;10593;48.398;10.698;2023-05-15T10:57:37;2.13;;;2.03;;
20865;SDS011;10593;48.398;10.698;2023-05-15T11:00:05;2.13;;;2.03;;
20865;SDS011;10593;48.398;10.698;2023-05-15T11:02:57;2.13;;;2.03;;
20865;SDS011;10593;48.398;10.698;2023-05-15T11:05:23;2.57;;;2.37;;
20865;SDS011;10593;48.398;10.698;2023-05-15T11:10:45;2.80;;;2.60;;
20865;SDS011;10593;48.398;10.698;2023-05-15T11:13:11;3.00;;;2.80;;
20865;SDS011;10593;48.398;10.698;2023-05-15T11:15:43;3.30;;;3.10;;
20865;SDS011;10593;48.398;10.698;2023-05-15T11:18:10;3.80;;;3.50;;
20865;SDS011;10593;48.398;10.698;2023-05-15T11:20:41;3.10;;;2.90;;
20865;SDS011;10593;48.398;10.698;2023-05-15T11:23:27;3.00;;;2.80;;
20865;SDS011;10593;48.398;10.698;2023-05-15T11:25:54;2.97;;;2.77;;
20865;SDS011;10593;48.398;10.698;2023-05-15T11:28:21;2.60;;;2.40;;
20865;SDS011;10593;48.398;10.698;2023-05-15T11:30:49;2.67;;;2.50;;
20865;SDS011;10593;48.398;10.698;2023-05-15T11:33:18;3.23;;;3.03;;
20865;SDS011;10593;48.398;10.698;2023-05-15T11:35:48;2.80;;;2.70;;
20865;SDS011;10593;48.398;10.698;2023-05-15T11:38:23;3.03;;;2.80;;
20865;SDS011;10593;48.398;10.698;2023-05-15T11:40:54;2.90;;;2.70;;
20865;SDS011;10593;48.398;10.698;2023-05-15T11:48:31;2.53;;;2.30;;
20865;SDS011;10593;48.398;10.698;2023-05-15T11:51:00;2.60;;;2.50;;
20865;SDS011;10593;48.398;10.698;2023-05-15T11:53:26;2.80;;;2.60;;
20865;SDS011;10593;48.398;10.698;2023-05-15T11:55:54;2.57;;;2.40;;
20865;SDS011;10593;48.398;10.698;2023-05-15T11:58:20;2.40;;;2.30;;
20865;SDS011;10593;48.398;10.698;2023-05-15T12:00:49;2.63;;;2.40;;
20865;SDS011;10593;48.398;10.698;2023-05-15T12:03:17;2.60;;;2.50;;
20865;SDS011;10593;48.398;10.698;2023-05-15T12:05:56;3.83;;;2.47;;
20865;SDS011;10593;48.398;10.698;2023-05-15T12:08:22;2.80;;;2.60;;
20865;SDS011;10593;48.398;10.698;2023-05-15T12:10:48;2.80;;;2.60;;
20865;SDS011;10593;48.398;10.698;2023-05-15T12:13:16;2.33;;;2.23;;
20865;SDS011;10593;48.398;10.698;2023-05-15T12:15:43;2.70;;;2.50;;
20865;SDS011;10593;48.398;10.698;2023-05-15T12:18:11;3.93;;;2.80;;
20865;SDS011;10593;48.398;10.698;2023-05-15T12:20:38;6.53;;;3.00;;
20865;SDS011;10593;48.398;10.698;2023-05-15T12:23:08;3.10;;;2.33;;
20865;SDS011;10593;48.398;10.698;2023-05-15T12:25:34;3.57;;;2.50;;
20865;SDS011;10593;48.398;10.698;2023-05-15T12:28:01;5.77;;;2.60;;
20865;SDS011;10593;48.398;10.698;2023-05-15T12:30:29;4.27;;;1.97;;
20865;SDS011;10593;48.398;10.698;2023-05-15T12:33:03;3.70;;;2.10;;
20865;SDS011;10593;48.398;10.698;2023-05-15T12:35:32;1.70;;;1.60;;
20865;SDS011;10593;48.398;10.698;2023-05-15T12:38:05;2.00;;;1.80;;
20865;SDS011;10593;48.398;10.698;2023-05-15T12:40:32;1.70;;;1.60;;
20865;SDS011;10593;48.398;10.698;2023-05-15T12:43:03;3.10;;;1.93;;
20865;SDS011;10593;48.398;10.698;2023-05-15T12:45:33;1.77;;;1.67;;
20865;SDS011;10593;48.398;10.698;2023-05-15T12:48:02;2.03;;;1.87;;
20865;SDS011;10593;48.398;10.698;2023-05-15T12:50:30;4.63;;;2.03;;
20865;SDS011;10593;48.398;10.698;2023-05-15T12:53:01;1.83;;;1.50;;
20865;SDS011;10593;48.398;10.698;2023-05-15T12:55:30;2.93;;;2.40;;
20865;SDS011;10593;48.398;10.698;2023-05-15T12:57:59;2.90;;;2.37;;
20865;SDS011;10593;48.398;10.698;2023-05-15T13:00:33;1.80;;;1.70;;
20865;SDS011;10593;48.398;10.698;2023-05-15T13:03:02;2.00;;;1.73;;
20865;SDS011;10593;48.398;10.698;2023-05-15T13:05:32;2.60;;;2.40;;
20865;SDS011;10593;48.398;10.698;2023-05-15T13:08:00;3.57;;;2.37;;
20865;SDS011;10593;48.398;10.698;2023-05-15T13:10:33;2.33;;;1.90;;
20865;SDS011;10593;48.398;10.698;2023-05-15T13:13:02;3.00;;;2.03;;
20865;SDS011;10593;48.398;10.698;2023-05-15T13:15:29;2.73;;;1.90;;
20865;SDS011;10593;48.398;10.698;2023-05-15T13:18:11;3.27;;;1.80;;
20865;SDS011;10593;48.398;10.698;2023-05-15T13:20:41;2.23;;;1.90;;
20865;SDS011;10593;48.398;10.698;2023-05-15T13:23:16;2.10;;;1.83;;
20865;SDS011;10593;48.398;10.698;2023-05-15T13:25:43;2.63;;;2.13;;
20865;SDS011;10593;48.398;10.698;2023-05-15T13:28:10;3.03;;;2.53;;
20865;SDS011;10593;48.398;10.698;2023-05-15T13:30:37;2.17;;;2.07;;
20865;SDS011;10593;48.398;10.698;2023-05-15T13:33:08;2.40;;;2.10;;
20865;SDS011;10593;48.398;10.698;2023-05-15T13:35:36;2.33;;;2.23;;
20865;SDS011;10593;48.398;10.698;2023-05-15T13:38:03;2.83;;;2.47;;
20865;SDS011;10593;48.398;10.698;2023-05-15T13:40:29;2.90;;;2.10;;
20865;SDS011;10593;48.398;10.698;2023-05-15T13:42:57;2.30;;;2.17;;
20865;SDS011;10593;48.398;10.698;2023-05-15T13:45:23;2.10;;;1.90;;
20865;SDS011;10593;48.398;10.698;2023-05-15T13:47:49;2.53;;;2.33;;
20865;SDS011;10593;48.398;10.698;2023-05-15T13:50:14;2.70;;;2.60;;
20865;SDS011;10593;48.398;10.698;2023-05-15T13:52:41;3.60;;;3.30;;
20865;SDS011;10593;48.398;10.698;2023-05-15T13:55:10;2.93;;;2.73;;
20865;SDS011;10593;48.398;10.698;2023-05-15T13:57:36;2.97;;;2.67;;
20865;SDS011;10593;48.398;10.698;2023-05-15T14:00:03;2.40;;;2.30;;
20865;SDS011;10593;48.398;10.698;2023-05-15T14:02:31;2.33;;;2.17;;
20865;SDS011;10593;48.398;10.698;2023-05-15T14:04:57;2.07;;;1.97;;
20865;SDS011;10593;48.398;10.698;2023-05-15T14:07:23;2.53;;;2.33;;
20865;SDS011;10593;48.398;10.698;2023-05-15T14:09:49;2.40;;;2.30;;
20865;SDS011;10593;48.398;10.698;2023-05-15T14:12:15;2.07;;;1.97;;
20865;SDS011;10593;48.398;10.698;2023-05-15T14:14:41;2.07;;;1.97;;
20865;SDS011;10593;48.398;10.698;2023-05-15T14:17:09;2.30;;;2.10;;
20865;SDS011;10593;48.398;10.698;2023-05-15T14:19:35;2.37;;;2.27;;
20865;SDS011;10593;48.398;10.698;2023-05-15T14:22:00;2.53;;;2.30;;
20865;SDS011;10593;48.398;10.698;2023-05-15T14:24:26;2.50;;;2.30;;
20865;SDS011;10593;48.398;10.698;2023-05-15T14:26:52;2.20;;;2.10;;
20865;SDS011;10593;48.398;10.698;2023-05-15T14:29:20;2.57;;;2.47;;
20865;SDS011;10593;48.398;10.698;2023-05-15T14:31:46;2.70;;;2.50;;
20865;SDS011;10593;48.398;10.698;2023-05-15T14:34:13;2.33;;;2.10;;
20865;SDS011;10593;48.398;10.698;2023-05-15T14:36:41;2.17;;;2.07;;
20865;SDS011;10593;48.398;10.698;2023-05-15T14:39:06;2.23;;;2.13;;
20865;SDS011;10593;48.398;10.698;2023-05-15T14:41:32;3.27;;;2.20;;
20865;SDS011;10593;48.398;10.698;2023-05-15T14:43:57;2.60;;;2.50;;
20865;SDS011;10593;48.398;10.698;2023-05-15T14:46:23;2.27;;;2.17;;
20865;SDS011;10593;48.398;10.698;2023-05-15T14:48:49;2.40;;;2.30;;
20865;SDS011;10593;48.398;10.698;2023-05-15T14:51:15;2.30;;;2.20;;
20865;SDS011;10593;48.398;10.698;2023-05-15T14:53:41;2.03;;;1.93;;
20865;SDS011;10593;48.398;10.698;2023-05-15T14:56:08;2.40;;;2.20;;
20865;SDS011;10593;48.398;10.698;2023-05-15T14:58:34;2.77;;;2.57;;
20865;SDS011;10593;48.398;10.698;2023-05-15T15:00:59;2.50;;;2.30;;
20865;SDS011;10593;48.398;10.698;2023-05-15T15:03:26;2.70;;;2.50;;
20865;SDS011;10593;48.398;10.698;2023-05-15T15:05:52;2.60;;;2.40;;
20865;SDS011;10593;48.398;10.698;2023-05-15T15:08:18;2.63;;;2.30;;
20865;SDS011;10593;48.398;10.698;2023-05-15T15:10:44;2.53;;;2.40;;